Time;durP1;ratioP1;P1;durP2;ratioP2;P2;SDS_P1;SDS_P2;PMS_P1;PMS_P2;Temp;Humidity;BMP_temperature;BMP_pressure;BME280_temperature;BME280_humidity;BME280_pressure;Samples;Min_cycle;Max_cycle;Signal;HPM_P1;HPM_P2
2021/03/23 00:00:51;;;;;;;15.17;10.13;;;;;;;;;;5080959;28;20178;-68
2021/03/23 00:03:20;;;;;;;15.10;10.33;;;;;;;;;;5085127;28;21644;-68
2021/03/23 00:05:46;;;;;;;19.47;10.50;;;;;;;;;;5085840;28;20590;-68
2021/03/23 00:08:32;;;;;;;14.97;10.33;;;;;;;;;;5087331;28;20191;-68
2021/03/23 00:11:00;;;;;;;14.90;9.90;;;;;;;;;;5078056;28;20295;-68
2021/03/23 00:13:26;;;;;;;21.33;11.37;;;;;;;;;;5090584;28;20208;-69
2021/03/23 00:15:52;;;;;;;15.90;10.40;;;;;;;;;;5084759;28;20560;-70
2021/03/23 00:18:19;;;;;;;14.33;10.97;;;;;;;;;;5080942;28;20189;-69
2021/03/23 00:20:46;;;;;;;15.53;10.97;;;;;;;;;;5076258;28;20196;-69
2021/03/23 00:23:12;;;;;;;15.90;10.77;;;;;;;;;;5081917;28;20207;-69
2021/03/23 00:25:38;;;;;;;18.90;11.10;;;;;;;;;;5083532;28;20208;-69
2021/03/23 00:28:05;;;;;;;16.10;10.80;;;;;;;;;;5080937;28;20168;-69
2021/03/23 00:30:32;;;;;;;16.87;11.00;;;;;;;;;;5081456;28;20191;-69
2021/03/23 00:32:58;;;;;;;15.40;11.00;;;;;;;;;;5083241;28;20209;-70
2021/03/23 00:35:24;;;;;;;15.60;11.47;;;;;;;;;;5080957;28;20185;-69
2021/03/23 00:37:52;;;;;;;15.00;10.67;;;;;;;;;;5091928;28;20592;-69
2021/03/23 00:40:19;;;;;;;12.47;10.27;;;;;;;;;;5089167;28;20194;-69
2021/03/23 00:42:45;;;;;;;16.70;10.90;;;;;;;;;;5094913;28;20286;-69
2021/03/23 00:45:12;;;;;;;14.63;11.10;;;;;;;;;;5089132;28;20236;-69
2021/03/23 00:47:38;;;;;;;16.73;10.80;;;;;;;;;;5088491;28;20188;-70
2021/03/23 00:50:05;;;;;;;18.03;11.37;;;;;;;;;;5091816;28;20263;-69
2021/03/23 00:52:30;;;;;;;15.27;10.70;;;;;;;;;;5085790;28;20213;-69
2021/03/23 00:54:56;;;;;;;18.73;11.07;;;;;;;;;;5081559;28;20184;-68
2021/03/23 00:57:22;;;;;;;17.70;11.73;;;;;;;;;;5085904;28;20199;-70
2021/03/23 00:59:48;;;;;;;15.73;10.53;;;;;;;;;;5085991;28;20212;-70
2021/03/23 01:02:15;;;;;;;18.47;11.17;;;;;;;;;;5087108;28;20211;-69
2021/03/23 01:04:40;;;;;;;19.50;11.63;;;;;;;;;;5079474;28;20205;-69
2021/03/23 01:07:06;;;;;;;15.37;9.77;;;;;;;;;;5085446;28;20195;-69
2021/03/23 01:09:32;;;;;;;16.17;10.60;;;;;;;;;;5088069;28;20659;-69
2021/03/23 01:11:59;;;;;;;13.87;10.73;;;;;;;;;;5084696;28;20208;-69
2021/03/23 01:14:25;;;;;;;16.43;10.67;;;;;;;;;;5082764;28;20187;-69
2021/03/23 01:16:50;;;;;;;14.27;10.27;;;;;;;;;;5086510;28;20190;-69
2021/03/23 01:19:16;;;;;;;20.27;11.00;;;;;;;;;;5084786;28;20191;-69
2021/03/23 01:21:42;;;;;;;15.87;9.23;;;;;;;;;;5083108;28;20212;-69
2021/03/23 01:24:09;;;;;;;13.97;10.17;;;;;;;;;;5087890;28;20204;-70
2021/03/23 01:26:35;;;;;;;14.77;9.80;;;;;;;;;;5081052;28;20218;-70
2021/03/23 01:29:01;;;;;;;15.80;10.33;;;;;;;;;;5086683;28;20283;-68
2021/03/23 01:31:27;;;;;;;16.30;10.60;;;;;;;;;;5087271;28;20672;-68
2021/03/23 01:33:53;;;;;;;15.77;10.90;;;;;;;;;;5094476;28;20246;-68
2021/03/23 01:36:19;;;;;;;14.73;10.67;;;;;;;;;;5080674;28;20193;-69
2021/03/23 01:38:45;;;;;;;14.93;10.60;;;;;;;;;;5084825;28;20613;-68
2021/03/23 01:41:11;;;;;;;16.30;10.97;;;;;;;;;;5087448;28;20281;-68
2021/03/23 01:43:37;;;;;;;15.40;10.97;;;;;;;;;;5095554;28;20578;-68
2021/03/23 01:46:23;;;;;;;17.23;11.00;;;;;;;;;;5087841;28;20261;-69
2021/03/23 01:48:49;;;;;;;18.03;11.93;;;;;;;;;;5084999;28;20186;-68
2021/03/23 01:51:16;;;;;;;15.90;11.83;;;;;;;;;;5083383;28;20198;-70
2021/03/23 01:53:47;;;;;;;17.00;12.07;;;;;;;;;;5082942;28;20285;-68
2021/03/23 01:56:14;;;;;;;17.87;11.27;;;;;;;;;;5086445;28;20193;-69
2021/03/23 01:58:44;;;;;;;16.97;11.83;;;;;;;;;;5084250;28;20185;-68
2021/03/23 02:01:12;;;;;;;16.90;12.10;;;;;;;;;;5081042;28;20204;-68
2021/03/23 02:03:38;;;;;;;16.70;12.97;;;;;;;;;;5088981;28;20211;-68
2021/03/23 02:06:04;;;;;;;19.27;12.50;;;;;;;;;;5081699;28;20204;-69
2021/03/23 02:08:30;;;;;;;14.80;11.50;;;;;;;;;;5079407;28;20249;-68
2021/03/23 02:10:58;;;;;;;16.97;11.77;;;;;;;;;;5083348;28;20238;-69
2021/03/23 02:13:24;;;;;;;17.60;11.53;;;;;;;;;;5087395;28;20344;-69
2021/03/23 02:15:50;;;;;;;19.63;12.17;;;;;;;;;;5077780;28;20219;-69
2021/03/23 02:18:19;;;;;;;17.33;12.17;;;;;;;;;;5082767;28;20783;-68
2021/03/23 02:20:58;;;;;;;16.83;11.77;;;;;;;;;;5092661;28;20192;-69
2021/03/23 02:23:26;;;;;;;19.47;11.67;;;;;;;;;;5079617;28;20254;-69
2021/03/23 02:25:52;;;;;;;14.60;11.83;;;;;;;;;;5087653;28;20213;-69
2021/03/23 02:28:18;;;;;;;19.03;11.90;;;;;;;;;;5085458;28;20193;-69
2021/03/23 02:30:46;;;;;;;16.87;11.50;;;;;;;;;;5079996;28;20190;-69
2021/03/23 02:33:12;;;;;;;17.77;12.83;;;;;;;;;;5077409;28;20212;-69
2021/03/23 02:35:38;;;;;;;15.13;11.97;;;;;;;;;;5089147;28;20184;-69
2021/03/23 02:38:05;;;;;;;17.37;12.80;;;;;;;;;;5084693;28;20238;-69
2021/03/23 02:40:31;;;;;;;20.13;14.10;;;;;;;;;;5084676;28;20195;-68
2021/03/23 02:42:57;;;;;;;20.97;13.23;;;;;;;;;;5080602;28;20206;-69
2021/03/23 02:45:24;;;;;;;18.20;12.13;;;;;;;;;;5090196;28;20253;-69
2021/03/23 02:47:50;;;;;;;20.23;13.17;;;;;;;;;;5084776;28;20188;-69
2021/03/23 02:50:16;;;;;;;18.33;12.80;;;;;;;;;;5084826;28;20216;-69
2021/03/23 02:52:42;;;;;;;18.87;12.87;;;;;;;;;;5089144;28;20611;-69
2021/03/23 02:55:08;;;;;;;19.30;13.17;;;;;;;;;;5079686;28;20186;-68
2021/03/23 02:57:34;;;;;;;18.90;13.67;;;;;;;;;;5088838;28;20196;-69
2021/03/23 03:00:00;;;;;;;18.50;13.30;;;;;;;;;;5083652;28;20197;-69
2021/03/23 03:02:26;;;;;;;19.87;13.33;;;;;;;;;;5090513;28;20294;-69
2021/03/23 03:04:52;;;;;;;18.30;12.90;;;;;;;;;;5077082;28;20251;-69
2021/03/23 03:07:18;;;;;;;20.97;14.23;;;;;;;;;;5082562;28;20597;-69
2021/03/23 03:09:44;;;;;;;18.87;13.33;;;;;;;;;;5086043;28;20185;-69
2021/03/23 03:12:10;;;;;;;20.03;14.10;;;;;;;;;;5085164;28;20580;-69
2021/03/23 03:14:36;;;;;;;25.20;14.73;;;;;;;;;;5088007;28;20186;-68
2021/03/23 03:17:02;;;;;;;21.53;14.57;;;;;;;;;;5082160;28;20648;-68
2021/03/23 03:19:28;;;;;;;20.87;15.20;;;;;;;;;;5078746;28;20633;-68
2021/03/23 03:21:54;;;;;;;20.73;15.03;;;;;;;;;;5073707;28;20279;-68
2021/03/23 03:24:20;;;;;;;23.33;15.80;;;;;;;;;;5073126;28;20207;-68
2021/03/23 03:26:46;;;;;;;19.53;14.60;;;;;;;;;;5085645;28;20207;-68
2021/03/23 03:29:12;;;;;;;18.67;14.60;;;;;;;;;;5083349;28;20188;-68
2021/03/23 03:31:38;;;;;;;18.37;13.27;;;;;;;;;;5086072;28;20182;-68
2021/03/23 03:34:04;;;;;;;18.93;13.93;;;;;;;;;;5084401;28;20202;-68
2021/03/23 03:36:31;;;;;;;18.23;13.80;;;;;;;;;;5082060;28;20190;-68
2021/03/23 03:38:58;;;;;;;23.47;14.13;;;;;;;;;;5094911;28;20264;-68
2021/03/23 03:41:24;;;;;;;22.40;15.60;;;;;;;;;;5079286;28;20254;-68
2021/03/23 03:43:50;;;;;;;20.53;15.07;;;;;;;;;;5085116;28;20790;-68
2021/03/23 03:46:16;;;;;;;20.53;14.97;;;;;;;;;;5083601;28;20228;-68
2021/03/23 03:48:42;;;;;;;24.60;16.13;;;;;;;;;;5085983;28;20269;-68
2021/03/23 03:51:08;;;;;;;23.20;15.30;;;;;;;;;;5084287;28;20476;-68
2021/03/23 03:53:34;;;;;;;23.73;15.20;;;;;;;;;;5072464;28;20206;-69
2021/03/23 03:56:01;;;;;;;24.23;15.97;;;;;;;;;;5082380;28;20268;-68
2021/03/23 03:58:27;;;;;;;27.63;15.77;;;;;;;;;;5082414;28;20573;-68
2021/03/23 04:00:53;;;;;;;22.67;16.93;;;;;;;;;;5084081;28;20266;-68
2021/03/23 04:03:25;;;;;;;23.33;17.10;;;;;;;;;;5085241;28;20210;-68
2021/03/23 04:05:51;;;;;;;24.83;17.40;;;;;;;;;;5091709;28;20206;-68
2021/03/23 04:08:19;;;;;;;24.77;18.23;;;;;;;;;;5092174;28;20545;-68
2021/03/23 04:10:45;;;;;;;25.27;19.00;;;;;;;;;;5090964;28;20176;-68
2021/03/23 04:13:12;;;;;;;26.53;18.00;;;;;;;;;;5085119;28;20201;-69
2021/03/23 04:15:39;;;;;;;29.43;18.53;;;;;;;;;;5090314;28;20624;-68
2021/03/23 04:18:06;;;;;;;26.77;18.57;;;;;;;;;;5084929;28;20268;-69
2021/03/23 04:20:32;;;;;;;31.93;20.00;;;;;;;;;;5083173;28;20195;-68
2021/03/23 04:22:59;;;;;;;29.03;20.23;;;;;;;;;;5086449;28;20211;-71
2021/03/23 04:25:26;;;;;;;30.73;20.73;;;;;;;;;;5088703;28;20203;-67
2021/03/23 04:27:52;;;;;;;31.33;21.00;;;;;;;;;;5080175;28;20689;-68
2021/03/23 04:30:19;;;;;;;30.30;20.40;;;;;;;;;;5088425;28;20189;-68
2021/03/23 04:32:45;;;;;;;29.63;20.10;;;;;;;;;;5089638;28;20689;-68
2021/03/23 04:35:22;;;;;;;27.73;21.00;;;;;;;;;;5086095;28;20193;-69
2021/03/23 04:37:48;;;;;;;32.57;22.00;;;;;;;;;;5084966;28;20192;-68
2021/03/23 04:40:14;;;;;;;31.30;20.97;;;;;;;;;;5077328;28;20185;-69
2021/03/23 04:42:40;;;;;;;28.30;21.83;;;;;;;;;;5083572;28;20204;-68
2021/03/23 04:45:06;;;;;;;30.97;20.77;;;;;;;;;;5084305;28;20218;-69
2021/03/23 04:47:32;;;;;;;30.67;20.60;;;;;;;;;;5085443;28;20193;-68
2021/03/23 04:49:58;;;;;;;26.70;19.67;;;;;;;;;;5089729;28;20235;-69
2021/03/23 04:52:24;;;;;;;29.50;20.20;;;;;;;;;;5071506;28;20204;-68
2021/03/23 04:54:50;;;;;;;28.30;20.87;;;;;;;;;;5083707;28;20268;-68
2021/03/23 04:57:16;;;;;;;31.13;20.50;;;;;;;;;;5085790;28;20217;-69
2021/03/23 04:59:45;;;;;;;27.50;19.80;;;;;;;;;;5078028;28;20184;-68
2021/03/23 05:02:11;;;;;;;28.80;20.70;;;;;;;;;;5083835;28;20201;-67
2021/03/23 05:04:37;;;;;;;27.80;21.13;;;;;;;;;;5084688;28;20186;-68
2021/03/23 05:07:03;;;;;;;30.50;21.50;;;;;;;;;;5089589;28;20265;-68
2021/03/23 05:09:29;;;;;;;34.67;22.63;;;;;;;;;;5079008;28;20183;-68
2021/03/23 05:11:56;;;;;;;32.03;22.37;;;;;;;;;;5089703;28;20200;-68
2021/03/23 05:14:22;;;;;;;33.07;21.33;;;;;;;;;;5089353;28;20347;-68
2021/03/23 05:16:48;;;;;;;34.73;23.03;;;;;;;;;;5089728;28;20672;-68
2021/03/23 05:19:14;;;;;;;31.13;22.50;;;;;;;;;;5085009;28;20186;-68
2021/03/23 05:21:40;;;;;;;34.67;23.03;;;;;;;;;;5082861;28;20205;-68
2021/03/23 05:24:06;;;;;;;33.07;21.93;;;;;;;;;;5091005;28;20209;-68
2021/03/23 05:26:32;;;;;;;32.17;22.13;;;;;;;;;;5090943;28;20294;-70
2021/03/23 05:28:58;;;;;;;35.00;21.53;;;;;;;;;;5086172;28;20187;-70
2021/03/23 05:31:25;;;;;;;29.50;20.73;;;;;;;;;;5086366;28;20182;-70
2021/03/23 05:33:51;;;;;;;28.43;20.40;;;;;;;;;;5078103;28;20695;-69
2021/03/23 05:36:18;;;;;;;32.33;20.77;;;;;;;;;;5088813;28;20257;-69
2021/03/23 05:38:44;;;;;;;33.60;22.17;;;;;;;;;;5082540;28;20193;-69
2021/03/23 05:41:26;;;;;;;28.97;21.13;;;;;;;;;;5086746;28;20261;-68
2021/03/23 05:43:58;;;;;;;36.83;22.23;;;;;;;;;;5088654;28;20213;-69
2021/03/23 05:46:24;;;;;;;33.80;22.37;;;;;;;;;;5091715;28;20209;-68
2021/03/23 05:48:59;;;;;;;37.23;23.30;;;;;;;;;;5085640;28;20270;-69
2021/03/23 05:51:31;;;;;;;36.50;24.63;;;;;;;;;;5077655;28;20204;-68
2021/03/23 05:54:12;;;;;;;34.80;24.83;;;;;;;;;;5078009;28;20288;-68
2021/03/23 05:56:39;;;;;;;39.60;24.97;;;;;;;;;;5079314;28;20222;-69
2021/03/23 05:59:15;;;;;;;34.73;24.53;;;;;;;;;;5080877;28;20189;-69
2021/03/23 06:01:53;;;;;;;35.50;25.30;;;;;;;;;;5084756;28;20242;-69
2021/03/23 06:04:42;;;;;;;33.30;24.40;;;;;;;;;;5083527;28;20193;-69
2021/03/23 06:07:11;;;;;;;38.73;25.37;;;;;;;;;;5077690;28;20184;-69
2021/03/23 06:09:38;;;;;;;36.20;23.63;;;;;;;;;;5082573;28;20192;-70
2021/03/23 06:12:11;;;;;;;39.00;23.73;;;;;;;;;;5079730;28;20666;-69
2021/03/23 06:14:41;;;;;;;37.97;25.27;;;;;;;;;;5083629;28;20263;-69
2021/03/23 06:17:19;;;;;;;33.40;23.87;;;;;;;;;;5079350;28;20192;-69
2021/03/23 06:19:49;;;;;;;38.70;25.37;;;;;;;;;;5083233;28;20182;-69
2021/03/23 06:22:33;;;;;;;42.83;26.33;;;;;;;;;;5086919;28;20205;-69
2021/03/23 06:25:05;;;;;;;40.37;25.03;;;;;;;;;;5083866;28;20212;-69
2021/03/23 06:27:57;;;;;;;43.60;25.53;;;;;;;;;;5085029;28;20194;-69
2021/03/23 06:30:42;;;;;;;33.77;23.13;;;;;;;;;;5052962;28;20220;-68
2021/03/23 06:33:13;;;;;;;33.60;23.13;;;;;;;;;;5069246;28;20196;-68
2021/03/23 06:35:42;;;;;;;33.10;22.17;;;;;;;;;;5062036;28;20225;-69
2021/03/23 06:38:18;;;;;;;33.83;22.67;;;;;;;;;;5045065;28;20194;-69
2021/03/23 06:41:04;;;;;;;36.60;22.53;;;;;;;;;;5064555;28;20221;-69
2021/03/23 06:43:30;;;;;;;29.23;21.20;;;;;;;;;;5067150;28;20318;-69
2021/03/23 06:46:01;;;;;;;35.93;23.03;;;;;;;;;;5068794;28;20214;-69
2021/03/23 06:48:29;;;;;;;31.83;22.17;;;;;;;;;;5066838;28;20603;-69
2021/03/23 06:51:09;;;;;;;38.60;22.97;;;;;;;;;;5049315;28;20189;-69
2021/03/23 06:53:35;;;;;;;37.30;23.87;;;;;;;;;;5069176;28;20219;-68
2021/03/23 06:56:20;;;;;;;40.93;24.87;;;;;;;;;;5068641;28;20198;-68
2021/03/23 06:58:47;;;;;;;33.03;22.97;;;;;;;;;;5066004;28;20245;-69
2021/03/23 07:01:15;;;;;;;35.23;24.13;;;;;;;;;;5044350;28;20213;-69
2021/03/23 07:03:42;;;;;;;33.20;22.67;;;;;;;;;;5062575;28;20217;-69
2021/03/23 07:06:21;;;;;;;37.80;24.57;;;;;;;;;;5066740;28;20241;-69
2021/03/23 07:09:04;;;;;;;31.87;22.83;;;;;;;;;;5078330;28;20182;-69
2021/03/23 07:11:48;;;;;;;32.67;23.90;;;;;;;;;;5076960;28;20195;-69
2021/03/23 07:14:21;;;;;;;32.07;21.87;;;;;;;;;;5078798;28;20270;-68
2021/03/23 07:16:48;;;;;;;32.57;21.17;;;;;;;;;;5080668;28;20228;-68
2021/03/23 07:19:14;;;;;;;35.27;25.23;;;;;;;;;;5083864;28;20187;-69
2021/03/23 07:21:42;;;;;;;36.53;25.00;;;;;;;;;;5082693;28;20219;-69
2021/03/23 07:24:10;;;;;;;38.37;26.07;;;;;;;;;;5083262;28;20210;-69
2021/03/23 07:26:37;;;;;;;35.33;26.20;;;;;;;;;;5081597;28;20221;-69
2021/03/23 07:29:12;;;;;;;40.80;26.87;;;;;;;;;;5076103;28;20203;-69
2021/03/23 07:31:47;;;;;;;33.97;24.30;;;;;;;;;;5087209;28;20215;-69
2021/03/23 07:34:15;;;;;;;35.17;24.73;;;;;;;;;;5076705;28;20201;-68
2021/03/23 07:36:43;;;;;;;38.47;26.07;;;;;;;;;;5083873;28;20254;-68
2021/03/23 07:39:09;;;;;;;37.30;25.93;;;;;;;;;;5078830;28;20182;-68
2021/03/23 07:41:45;;;;;;;36.93;25.23;;;;;;;;;;5078975;28;20236;-69
2021/03/23 07:44:18;;;;;;;36.43;26.10;;;;;;;;;;5091593;28;20201;-69
2021/03/23 07:46:46;;;;;;;38.03;24.93;;;;;;;;;;5093269;28;20239;-68
2021/03/23 07:49:24;;;;;;;36.77;25.47;;;;;;;;;;5093264;28;20182;-68
2021/03/23 07:51:55;;;;;;;34.07;24.90;;;;;;;;;;5083947;28;20240;-68
2021/03/23 07:54:35;;;;;;;37.27;26.53;;;;;;;;;;5089530;28;20209;-68
2021/03/23 07:57:08;;;;;;;35.07;24.57;;;;;;;;;;5088462;28;20191;-68
2021/03/23 07:59:49;;;;;;;36.70;25.37;;;;;;;;;;5083952;28;20182;-69
2021/03/23 08:02:25;;;;;;;34.40;24.80;;;;;;;;;;5087264;28;20621;-69
2021/03/23 08:05:00;;;;;;;32.47;24.27;;;;;;;;;;5096119;28;20194;-68
2021/03/23 08:07:33;;;;;;;34.80;24.63;;;;;;;;;;5090339;28;20182;-68
2021/03/23 08:10:22;;;;;;;35.30;24.67;;;;;;;;;;5078935;28;20178;-69
2021/03/23 08:13:02;;;;;;;35.13;24.83;;;;;;;;;;5085885;28;20217;-68
2021/03/23 08:15:34;;;;;;;38.37;24.03;;;;;;;;;;5093322;28;20272;-68
2021/03/23 08:18:19;;;;;;;34.13;23.93;;;;;;;;;;5092573;28;20206;-68
2021/03/23 08:20:52;;;;;;;38.47;25.00;;;;;;;;;;5088141;28;20691;-68
2021/03/23 08:23:18;;;;;;;36.37;25.43;;;;;;;;;;5089503;28;20226;-69
2021/03/23 08:25:57;;;;;;;34.30;25.13;;;;;;;;;;5082736;28;20206;-68
2021/03/23 08:28:43;;;;;;;34.30;23.77;;;;;;;;;;5083091;28;20192;-69
2021/03/23 08:31:16;;;;;;;36.10;25.00;;;;;;;;;;5087725;28;20666;-69
2021/03/23 08:33:48;;;;;;;32.60;23.27;;;;;;;;;;5096364;28;20613;-69
2021/03/23 08:36:27;;;;;;;32.23;24.23;;;;;;;;;;5087069;28;20718;-70
2021/03/23 08:39:11;;;;;;;37.13;23.67;;;;;;;;;;5089829;28;20721;-70
2021/03/23 08:41:46;;;;;;;31.50;24.33;;;;;;;;;;5077491;28;20190;-70
2021/03/23 08:44:27;;;;;;;32.87;24.50;;;;;;;;;;5083420;28;20205;-69
2021/03/23 08:46:54;;;;;;;35.20;23.97;;;;;;;;;;5082754;28;20691;-69
2021/03/23 08:49:22;;;;;;;30.53;22.13;;;;;;;;;;5088353;28;20182;-70
2021/03/23 08:51:49;;;;;;;31.07;23.03;;;;;;;;;;5087740;28;20179;-71
2021/03/23 08:54:42;;;;;;;31.07;22.43;;;;;;;;;;5085723;28;20206;-69
2021/03/23 08:57:08;;;;;;;31.83;22.33;;;;;;;;;;5089910;28;20182;-68
2021/03/23 08:59:34;;;;;;;34.20;24.43;;;;;;;;;;5091311;28;20688;-69
2021/03/23 09:02:01;;;;;;;37.00;25.23;;;;;;;;;;5087829;28;20190;-69
2021/03/23 09:04:34;;;;;;;29.73;21.37;;;;;;;;;;5080606;28;20191;-70
2021/03/23 09:07:02;;;;;;;33.83;22.43;;;;;;;;;;5078845;28;20210;-69
2021/03/23 09:09:31;;;;;;;32.53;22.00;;;;;;;;;;5087527;28;20205;-68
2021/03/23 09:12:00;;;;;;;30.33;23.17;;;;;;;;;;5087625;28;20778;-70
2021/03/23 09:14:27;;;;;;;35.07;23.27;;;;;;;;;;5084176;28;20182;-70
2021/03/23 09:16:53;;;;;;;32.10;22.17;;;;;;;;;;5083560;28;20194;-69
2021/03/23 09:19:31;;;;;;;31.40;23.47;;;;;;;;;;5085430;28;20193;-68
2021/03/23 09:22:00;;;;;;;32.93;22.57;;;;;;;;;;5088232;28;20246;-69
2021/03/23 09:24:28;;;;;;;27.40;21.80;;;;;;;;;;5087226;28;20212;-68
2021/03/23 09:26:54;;;;;;;29.97;20.90;;;;;;;;;;5085831;28;20221;-68
2021/03/23 09:29:34;;;;;;;25.40;19.23;;;;;;;;;;5089275;28;20829;-68
2021/03/23 09:32:00;;;;;;;26.50;19.10;;;;;;;;;;5081280;28;20868;-68
2021/03/23 09:34:44;;;;;;;27.33;18.93;;;;;;;;;;5080707;28;20185;-68
2021/03/23 09:37:29;;;;;;;23.92;18.50;;;;;;;;;;5086276;28;20193;-68
2021/03/23 09:39:55;;;;;;;24.95;17.75;;;;;;;;;;5086663;28;20205;-68
2021/03/23 09:42:26;;;;;;;24.98;15.85;;;;;;;;;;5085512;28;20207;-68
2021/03/23 09:44:58;;;;;;;21.73;16.45;;;;;;;;;;5086000;28;20761;-68
2021/03/23 09:47:38;;;;;;;22.70;17.95;;;;;;;;;;5079820;28;20179;-68
2021/03/23 09:50:04;;;;;;;18.15;15.55;;;;;;;;;;5089513;28;20246;-68
2021/03/23 09:52:32;;;;;;;21.67;15.98;;;;;;;;;;5088032;28;20205;-69
2021/03/23 09:55:01;;;;;;;20.17;16.00;;;;;;;;;;5082472;28;20170;-69
2021/03/23 09:57:28;;;;;;;21.92;15.82;;;;;;;;;;5089867;28;20809;-69
2021/03/23 09:59:56;;;;;;;20.08;15.98;;;;;;;;;;5079946;28;20193;-68
2021/03/23 10:02:23;;;;;;;22.27;18.00;;;;;;;;;;5089434;28;20208;-69
2021/03/23 10:04:49;;;;;;;18.83;15.97;;;;;;;;;;5081586;28;20178;-69
2021/03/23 10:07:45;;;;;;;24.80;17.20;;;;;;;;;;5079544;28;20187;-68
2021/03/23 10:10:23;;;;;;;24.93;15.90;;;;;;;;;;5061894;28;20887;-68
2021/03/23 10:12:49;;;;;;;22.03;17.80;;;;;;;;;;5053215;28;20615;-68
2021/03/23 10:15:18;;;;;;;26.03;18.00;;;;;;;;;;5061389;28;20290;-68
2021/03/23 10:17:44;;;;;;;19.07;15.23;;;;;;;;;;5056805;28;20229;-68
2021/03/23 10:20:13;;;;;;;21.93;15.20;;;;;;;;;;5061361;28;20199;-68
2021/03/23 10:22:40;;;;;;;19.60;16.00;;;;;;;;;;5064141;28;20210;-69
2021/03/23 10:25:08;;;;;;;27.00;16.53;;;;;;;;;;5066097;28;20214;-68
2021/03/23 10:27:36;;;;;;;24.17;17.77;;;;;;;;;;5062511;28;20199;-68
2021/03/23 10:30:09;;;;;;;21.37;16.17;;;;;;;;;;5063026;28;20197;-70
2021/03/23 10:32:46;;;;;;;20.43;14.77;;;;;;;;;;5046785;28;20211;-69
2021/03/23 10:35:15;;;;;;;24.73;15.97;;;;;;;;;;5064756;28;20194;-68
2021/03/23 10:37:41;;;;;;;20.43;16.40;;;;;;;;;;5048332;28;20244;-69
2021/03/23 10:40:27;;;;;;;19.93;16.13;;;;;;;;;;5060732;28;20206;-68
2021/03/23 10:42:54;;;;;;;19.70;14.47;;;;;;;;;;5054678;28;20234;-68
2021/03/23 10:45:26;;;;;;;19.10;14.20;;;;;;;;;;5060548;28;20250;-69
2021/03/23 10:48:03;;;;;;;18.80;13.47;;;;;;;;;;5086831;28;20176;-69
2021/03/23 10:50:30;;;;;;;22.47;13.33;;;;;;;;;;5079871;28;20616;-69
2021/03/23 10:53:10;;;;;;;19.80;13.30;;;;;;;;;;5080501;28;20733;-68
2021/03/23 10:55:38;;;;;;;18.87;13.43;;;;;;;;;;5088581;28;20190;-69
2021/03/23 10:58:22;;;;;;;20.47;13.70;;;;;;;;;;5083257;28;20605;-69
2021/03/23 11:00:50;;;;;;;25.00;18.87;;;;;;;;;;5085838;28;20186;-69
2021/03/23 11:03:19;;;;;;;20.33;15.60;;;;;;;;;;5081480;28;20259;-69
2021/03/23 11:05:50;;;;;;;16.37;14.20;;;;;;;;;;5078997;28;20217;-68
2021/03/23 11:08:16;;;;;;;24.83;18.93;;;;;;;;;;5075494;28;20186;-68
2021/03/23 11:10:43;;;;;;;18.43;14.40;;;;;;;;;;5082784;28;20185;-68
2021/03/23 11:13:13;;;;;;;17.27;12.93;;;;;;;;;;5078606;28;20680;-68
2021/03/23 11:15:44;;;;;;;15.80;12.27;;;;;;;;;;5082444;28;20205;-68
2021/03/23 11:18:19;;;;;;;18.47;13.80;;;;;;;;;;5085375;28;20182;-68
2021/03/23 11:20:46;;;;;;;20.37;13.07;;;;;;;;;;5085927;28;20181;-68
2021/03/23 11:23:32;;;;;;;17.50;13.60;;;;;;;;;;5091590;28;20206;-68
2021/03/23 11:25:58;;;;;;;18.67;13.60;;;;;;;;;;5084088;28;20313;-69
2021/03/23 11:28:25;;;;;;;20.27;15.27;;;;;;;;;;5077618;28;20205;-68
2021/03/23 11:30:51;;;;;;;20.20;13.60;;;;;;;;;;5087144;28;20191;-68
2021/03/23 11:33:17;;;;;;;21.77;14.03;;;;;;;;;;5090430;28;20206;-68
2021/03/23 11:35:47;;;;;;;18.97;13.80;;;;;;;;;;5084578;28;20193;-68
2021/03/23 11:38:13;;;;;;;16.33;12.73;;;;;;;;;;5082583;28;20192;-68
2021/03/23 11:40:40;;;;;;;14.67;11.97;;;;;;;;;;5083592;28;20182;-68
2021/03/23 11:43:06;;;;;;;18.60;13.43;;;;;;;;;;5083221;28;20202;-68
2021/03/23 11:45:33;;;;;;;16.27;13.43;;;;;;;;;;5079417;28;20219;-69
2021/03/23 11:48:03;;;;;;;16.27;13.17;;;;;;;;;;5079378;28;20183;-68
2021/03/23 11:50:30;;;;;;;25.87;17.57;;;;;;;;;;5082304;28;20233;-68
2021/03/23 11:52:57;;;;;;;17.87;14.17;;;;;;;;;;5086346;28;20198;-68
2021/03/23 11:55:27;;;;;;;16.03;13.27;;;;;;;;;;5076590;28;20183;-69
2021/03/23 11:57:53;;;;;;;15.20;12.37;;;;;;;;;;5085696;28;20238;-68
2021/03/23 12:00:21;;;;;;;15.00;11.70;;;;;;;;;;5087007;28;20197;-68
2021/03/23 12:02:47;;;;;;;17.27;13.17;;;;;;;;;;5087502;28;20206;-70
2021/03/23 12:05:13;;;;;;;17.97;11.30;;;;;;;;;;5089321;28;20191;-68
2021/03/23 12:07:39;;;;;;;21.67;14.47;;;;;;;;;;5086074;28;20186;-70
2021/03/23 12:10:11;;;;;;;20.33;12.60;;;;;;;;;;5085470;28;20645;-69
2021/03/23 12:12:43;;;;;;;12.63;10.97;;;;;;;;;;5085018;28;20206;-69
2021/03/23 12:15:12;;;;;;;15.53;11.77;;;;;;;;;;5075682;28;20268;-69
2021/03/23 12:17:39;;;;;;;16.23;11.50;;;;;;;;;;5086030;28;20186;-68
2021/03/23 12:20:15;;;;;;;15.30;11.77;;;;;;;;;;5076952;28;20616;-69
2021/03/23 12:22:41;;;;;;;14.40;11.67;;;;;;;;;;5082109;28;20228;-69
2021/03/23 12:25:08;;;;;;;17.63;11.63;;;;;;;;;;5084647;28;20225;-69
2021/03/23 12:27:34;;;;;;;15.03;12.13;;;;;;;;;;5092034;28;20182;-68
2021/03/23 12:30:04;;;;;;;14.37;11.50;;;;;;;;;;5086203;28;20182;-71
2021/03/23 12:32:32;;;;;;;17.50;11.83;;;;;;;;;;5086915;28;20203;-69
2021/03/23 12:34:58;;;;;;;18.67;12.37;;;;;;;;;;5084365;28;20179;-69
2021/03/23 12:37:25;;;;;;;17.83;13.00;;;;;;;;;;5080949;28;20191;-69
2021/03/23 12:39:54;;;;;;;16.43;10.30;;;;;;;;;;5084621;28;20619;-69
2021/03/23 12:42:22;;;;;;;12.87;10.30;;;;;;;;;;5082121;28;20230;-69
2021/03/23 12:44:48;;;;;;;14.63;11.33;;;;;;;;;;5094325;28;20185;-71
2021/03/23 12:47:14;;;;;;;14.10;11.70;;;;;;;;;;5085600;28;20262;-70
2021/03/23 12:49:41;;;;;;;18.03;11.67;;;;;;;;;;5087537;28;20183;-69
2021/03/23 12:52:07;;;;;;;16.40;11.10;;;;;;;;;;5085255;28;20197;-70
2021/03/23 12:54:37;;;;;;;13.70;10.87;;;;;;;;;;5087681;28;20275;-69
2021/03/23 12:57:22;;;;;;;14.77;11.47;;;;;;;;;;5089385;28;20193;-68
2021/03/23 12:59:49;;;;;;;15.20;10.90;;;;;;;;;;5090005;28;20182;-69
2021/03/23 13:02:17;;;;;;;13.17;10.17;;;;;;;;;;5094512;28;20213;-68
2021/03/23 13:04:46;;;;;;;13.57;10.27;;;;;;;;;;5091283;28;20206;-70
2021/03/23 13:07:18;;;;;;;12.93;9.90;;;;;;;;;;5084113;28;20715;-69
2021/03/23 13:09:44;;;;;;;14.70;10.00;;;;;;;;;;5089299;28;20182;-69
2021/03/23 13:12:10;;;;;;;13.40;9.67;;;;;;;;;;5084495;28;20246;-70
2021/03/23 13:14:38;;;;;;;12.53;10.07;;;;;;;;;;5077754;28;20257;-69
2021/03/23 13:17:04;;;;;;;15.37;11.47;;;;;;;;;;5086350;28;20178;-68
2021/03/23 13:19:30;;;;;;;12.13;10.67;;;;;;;;;;5090182;28;20239;-70
2021/03/23 13:21:57;;;;;;;23.63;18.47;;;;;;;;;;5089849;28;20182;-70
2021/03/23 13:24:35;;;;;;;19.33;13.67;;;;;;;;;;5080526;28;20310;-71
2021/03/23 13:27:12;;;;;;;14.43;10.83;;;;;;;;;;5088057;28;20205;-70
2021/03/23 13:29:38;;;;;;;18.03;11.63;;;;;;;;;;5082611;28;20321;-69
2021/03/23 13:32:04;;;;;;;18.83;14.07;;;;;;;;;;5086121;28;20236;-68
2021/03/23 13:34:30;;;;;;;21.00;16.10;;;;;;;;;;5088184;28;20185;-70
2021/03/23 13:37:00;;;;;;;21.50;14.30;;;;;;;;;;5081179;28;20217;-68
2021/03/23 13:39:30;;;;;;;15.17;11.43;;;;;;;;;;5085813;28;20629;-70
2021/03/23 13:42:10;;;;;;;15.50;11.20;;;;;;;;;;5081274;28;20242;-71
2021/03/23 13:44:50;;;;;;;16.00;11.40;;;;;;;;;;5085511;28;20187;-70
2021/03/23 13:47:17;;;;;;;17.50;12.07;;;;;;;;;;5092875;28;20287;-68
2021/03/23 13:49:43;;;;;;;17.27;12.13;;;;;;;;;;5086289;28;20179;-68
2021/03/23 13:52:23;;;;;;;15.27;12.17;;;;;;;;;;5084579;28;20810;-69
2021/03/23 13:54:50;;;;;;;17.40;11.97;;;;;;;;;;5088369;28;20467;-69
2021/03/23 13:57:16;;;;;;;13.20;10.60;;;;;;;;;;5082846;28;20205;-68
2021/03/23 13:59:42;;;;;;;16.20;10.77;;;;;;;;;;5094083;28;20181;-68
2021/03/23 14:02:11;;;;;;;15.77;11.57;;;;;;;;;;5084779;28;20185;-68
2021/03/23 14:04:37;;;;;;;13.87;10.80;;;;;;;;;;5087959;28;20190;-68
2021/03/23 14:07:03;;;;;;;14.33;10.73;;;;;;;;;;5087116;28;20639;-68
2021/03/23 14:09:35;;;;;;;12.00;9.70;;;;;;;;;;5089436;28;20182;-68
2021/03/23 14:12:01;;;;;;;18.83;10.30;;;;;;;;;;5078132;28;20187;-68
2021/03/23 14:14:27;;;;;;;11.60;9.73;;;;;;;;;;5083233;28;20245;-68
2021/03/23 14:16:53;;;;;;;14.93;9.60;;;;;;;;;;5084244;28;20270;-69
2021/03/23 14:19:19;;;;;;;13.23;9.30;;;;;;;;;;5080069;28;20896;-69
2021/03/23 14:21:46;;;;;;;13.47;8.97;;;;;;;;;;5085516;28;20195;-68
2021/03/23 14:24:14;;;;;;;11.33;9.10;;;;;;;;;;5078835;28;20242;-69
2021/03/23 14:26:40;;;;;;;15.67;11.67;;;;;;;;;;5083117;28;20684;-69
2021/03/23 14:29:06;;;;;;;12.03;9.63;;;;;;;;;;5085360;28;20264;-69
2021/03/23 14:31:32;;;;;;;11.80;9.60;;;;;;;;;;5090270;28;20803;-70